sensor_id;sensor_type;location;lat;lon;timestamp;P1;durP1;ratioP1;P2;durP2;ratioP2
22005;SDS011;11167;46.988;15.470;2024-02-23T00:00:50;0.33;;;0.30;;
22005;SDS011;11167;46.988;15.470;2024-02-23T00:02:51;0.53;;;0.33;;
22005;SDS011;11167;46.988;15.470;2024-02-23T00:04:54;0.43;;;0.30;;
22005;SDS011;11167;46.988;15.470;2024-02-23T00:06:56;0.40;;;0.35;;
22005;SDS011;11167;46.988;15.470;2024-02-23T00:08:57;0.30;;;0.30;;
22005;SDS011;11167;46.988;15.470;2024-02-23T00:10:58;0.40;;;0.40;;
22005;SDS011;11167;46.988;15.470;2024-02-23T00:12:59;0.25;;;0.25;;
22005;SDS011;11167;46.988;15.470;2024-02-23T00:15:01;0.30;;;0.30;;
22005;SDS011;11167;46.988;15.470;2024-02-23T00:17:02;0.47;;;0.30;;
22005;SDS011;11167;46.988;15.470;2024-02-23T00:19:04;0.33;;;0.33;;
22005;SDS011;11167;46.988;15.470;2024-02-23T00:21:05;0.30;;;0.30;;
22005;SDS011;11167;46.988;15.470;2024-02-23T00:23:06;0.30;;;0.30;;
22005;SDS011;11167;46.988;15.470;2024-02-23T00:25:07;0.37;;;0.37;;
22005;SDS011;11167;46.988;15.470;2024-02-23T00:27:09;0.30;;;0.20;;
22005;SDS011;11167;46.988;15.470;2024-02-23T00:29:10;0.30;;;0.30;;
22005;SDS011;11167;46.988;15.470;2024-02-23T00:31:11;0.53;;;0.20;;
22005;SDS011;11167;46.988;15.470;2024-02-23T00:33:14;0.20;;;0.20;;
22005;SDS011;11167;46.988;15.470;2024-02-23T00:35:15;0.20;;;0.20;;
22005;SDS011;11167;46.988;15.470;2024-02-23T00:37:17;0.20;;;0.20;;
22005;SDS011;11167;46.988;15.470;2024-02-23T00:39:18;0.45;;;0.30;;
22005;SDS011;11167;46.988;15.470;2024-02-23T00:41:19;0.25;;;0.25;;
22005;SDS011;11167;46.988;15.470;2024-02-23T00:43:21;0.30;;;0.30;;
22005;SDS011;11167;46.988;15.470;2024-02-23T00:45:23;0.30;;;0.30;;
22005;SDS011;11167;46.988;15.470;2024-02-23T00:47:24;0.60;;;0.30;;
22005;SDS011;11167;46.988;15.470;2024-02-23T00:49:25;0.40;;;0.30;;
22005;SDS011;11167;46.988;15.470;2024-02-23T00:51:26;0.20;;;0.20;;
22005;SDS011;11167;46.988;15.470;2024-02-23T00:53:27;0.20;;;0.20;;
22005;SDS011;11167;46.988;15.470;2024-02-23T00:55:29;0.40;;;0.30;;
22005;SDS011;11167;46.988;15.470;2024-02-23T00:57:30;0.20;;;0.20;;
22005;SDS011;11167;46.988;15.470;2024-02-23T00:59:32;1.42;;;0.33;;
22005;SDS011;11167;46.988;15.470;2024-02-23T01:01:34;0.68;;;0.30;;
22005;SDS011;11167;46.988;15.470;2024-02-23T01:03:35;0.60;;;0.30;;
22005;SDS011;11167;46.988;15.470;2024-02-23T01:05:36;0.30;;;0.30;;
22005;SDS011;11167;46.988;15.470;2024-02-23T01:07:38;0.20;;;0.20;;
22005;SDS011;11167;46.988;15.470;2024-02-23T01:09:40;0.30;;;0.30;;
22005;SDS011;11167;46.988;15.470;2024-02-23T01:11:41;0.30;;;0.30;;
22005;SDS011;11167;46.988;15.470;2024-02-23T01:13:42;0.40;;;0.40;;
22005;SDS011;11167;46.988;15.470;2024-02-23T01:15:43;0.55;;;0.30;;
22005;SDS011;11167;46.988;15.470;2024-02-23T01:17:45;0.42;;;0.37;;
22005;SDS011;11167;46.988;15.470;2024-02-23T01:19:46;0.37;;;0.30;;
22005;SDS011;11167;46.988;15.470;2024-02-23T01:21:47;0.20;;;0.20;;
22005;SDS011;11167;46.988;15.470;2024-02-23T01:23:49;0.65;;;0.20;;
22005;SDS011;11167;46.988;15.470;2024-02-23T01:25:50;0.35;;;0.28;;
22005;SDS011;11167;46.988;15.470;2024-02-23T01:27:52;0.20;;;0.20;;
22005;SDS011;11167;46.988;15.470;2024-02-23T01:29:53;0.40;;;0.40;;
22005;SDS011;11167;46.988;15.470;2024-02-23T01:31:55;0.20;;;0.20;;
22005;SDS011;11167;46.988;15.470;2024-02-23T01:33:56;0.25;;;0.25;;
22005;SDS011;11167;46.988;15.470;2024-02-23T01:35:57;0.68;;;0.23;;
22005;SDS011;11167;46.988;15.470;2024-02-23T01:37:58;0.40;;;0.30;;
22005;SDS011;11167;46.988;15.470;2024-02-23T01:39:59;0.20;;;0.20;;
22005;SDS011;11167;46.988;15.470;2024-02-23T01:42:03;0.30;;;0.30;;
22005;SDS011;11167;46.988;15.470;2024-02-23T01:44:05;0.88;;;0.40;;
22005;SDS011;11167;46.988;15.470;2024-02-23T01:46:06;0.47;;;0.30;;
22005;SDS011;11167;46.988;15.470;2024-02-23T01:48:07;0.30;;;0.30;;
22005;SDS011;11167;46.988;15.470;2024-02-23T01:50:08;0.28;;;0.20;;
22005;SDS011;11167;46.988;15.470;2024-02-23T01:52:10;0.35;;;0.28;;
22005;SDS011;11167;46.988;15.470;2024-02-23T01:54:12;0.53;;;0.30;;
22005;SDS011;11167;46.988;15.470;2024-02-23T01:56:14;0.20;;;0.20;;
22005;SDS011;11167;46.988;15.470;2024-02-23T01:58:18;0.40;;;0.30;;
22005;SDS011;11167;46.988;15.470;2024-02-23T02:00:20;0.25;;;0.25;;
22005;SDS011;11167;46.988;15.470;2024-02-23T02:02:22;0.23;;;0.23;;
22005;SDS011;11167;46.988;15.470;2024-02-23T02:04:23;0.30;;;0.30;;
22005;SDS011;11167;46.988;15.470;2024-02-23T02:06:24;0.20;;;0.20;;
22005;SDS011;11167;46.988;15.470;2024-02-23T02:08:25;0.25;;;0.25;;
22005;SDS011;11167;46.988;15.470;2024-02-23T02:10:27;0.88;;;0.20;;
22005;SDS011;11167;46.988;15.470;2024-02-23T02:12:28;0.65;;;0.30;;
22005;SDS011;11167;46.988;15.470;2024-02-23T02:16:34;0.30;;;0.30;;
22005;SDS011;11167;46.988;15.470;2024-02-23T02:18:35;0.10;;;0.10;;
22005;SDS011;11167;46.988;15.470;2024-02-23T02:20:37;0.10;;;0.10;;
22005;SDS011;11167;46.988;15.470;2024-02-23T02:22:41;0.42;;;0.28;;
22005;SDS011;11167;46.988;15.470;2024-02-23T02:24:43;0.30;;;0.30;;
22005;SDS011;11167;46.988;15.470;2024-02-23T02:26:44;0.20;;;0.20;;
22005;SDS011;11167;46.988;15.470;2024-02-23T02:28:46;0.50;;;0.40;;
22005;SDS011;11167;46.988;15.470;2024-02-23T02:30:51;0.37;;;0.30;;
22005;SDS011;11167;46.988;15.470;2024-02-23T02:32:54;0.20;;;0.20;;
22005;SDS011;11167;46.988;15.470;2024-02-23T02:34:56;0.30;;;0.30;;
22005;SDS011;11167;46.988;15.470;2024-02-23T02:36:57;0.35;;;0.35;;
22005;SDS011;11167;46.988;15.470;2024-02-23T02:38:58;0.20;;;0.20;;
22005;SDS011;11167;46.988;15.470;2024-02-23T02:40:59;0.50;;;0.30;;
22005;SDS011;11167;46.988;15.470;2024-02-23T02:43:03;0.20;;;0.20;;
22005;SDS011;11167;46.988;15.470;2024-02-23T02:45:05;0.30;;;0.30;;
22005;SDS011;11167;46.988;15.470;2024-02-23T02:47:07;0.40;;;0.23;;
22005;SDS011;11167;46.988;15.470;2024-02-23T02:49:08;0.30;;;0.30;;
22005;SDS011;11167;46.988;15.470;2024-02-23T02:51:09;0.28;;;0.23;;
22005;SDS011;11167;46.988;15.470;2024-02-23T02:53:11;0.28;;;0.17;;
22005;SDS011;11167;46.988;15.470;2024-02-23T02:55:12;0.20;;;0.20;;
22005;SDS011;11167;46.988;15.470;2024-02-23T02:57:13;0.20;;;0.20;;
22005;SDS011;11167;46.988;15.470;2024-02-23T02:59:15;0.42;;;0.20;;
22005;SDS011;11167;46.988;15.470;2024-02-23T03:01:16;0.30;;;0.30;;
22005;SDS011;11167;46.988;15.470;2024-02-23T03:03:17;0.17;;;0.17;;
22005;SDS011;11167;46.988;15.470;2024-02-23T03:05:18;0.17;;;0.17;;
22005;SDS011;11167;46.988;15.470;2024-02-23T03:07:19;0.20;;;0.20;;
22005;SDS011;11167;46.988;15.470;2024-02-23T03:09:21;0.20;;;0.20;;
22005;SDS011;11167;46.988;15.470;2024-02-23T03:11:22;0.20;;;0.20;;
22005;SDS011;11167;46.988;15.470;2024-02-23T03:13:23;0.55;;;0.30;;
22005;SDS011;11167;46.988;15.470;2024-02-23T03:15:24;0.40;;;0.20;;
22005;SDS011;11167;46.988;15.470;2024-02-23T03:17:25;0.33;;;0.20;;
22005;SDS011;11167;46.988;15.470;2024-02-23T03:19:26;0.30;;;0.20;;
22005;SDS011;11167;46.988;15.470;2024-02-23T03:21:28;0.20;;;0.20;;
22005;SDS011;11167;46.988;15.470;2024-02-23T03:23:29;0.17;;;0.13;;
22005;SDS011;11167;46.988;15.470;2024-02-23T03:25:30;0.20;;;0.20;;
22005;SDS011;11167;46.988;15.470;2024-02-23T03:27:31;0.20;;;0.20;;
22005;SDS011;11167;46.988;15.470;2024-02-23T03:29:32;0.23;;;0.20;;
22005;SDS011;11167;46.988;15.470;2024-02-23T03:31:33;0.30;;;0.23;;
22005;SDS011;11167;46.988;15.470;2024-02-23T03:33:35;0.20;;;0.20;;
22005;SDS011;11167;46.988;15.470;2024-02-23T03:35:36;0.62;;;0.20;;
22005;SDS011;11167;46.988;15.470;2024-02-23T03:37:37;0.30;;;0.30;;
22005;SDS011;11167;46.988;15.470;2024-02-23T03:39:38;0.40;;;0.40;;
22005;SDS011;11167;46.988;15.470;2024-02-23T03:41:40;0.25;;;0.20;;
22005;SDS011;11167;46.988;15.470;2024-02-23T03:43:43;0.25;;;0.20;;
22005;SDS011;11167;46.988;15.470;2024-02-23T03:47:46;0.35;;;0.30;;
22005;SDS011;11167;46.988;15.470;2024-02-23T03:49:49;0.10;;;0.10;;
22005;SDS011;11167;46.988;15.470;2024-02-23T03:51:50;0.30;;;0.20;;
22005;SDS011;11167;46.988;15.470;2024-02-23T03:53:51;0.40;;;0.30;;
22005;SDS011;11167;46.988;15.470;2024-02-23T03:55:52;0.85;;;0.20;;
22005;SDS011;11167;46.988;15.470;2024-02-23T03:57:54;0.82;;;0.20;;
22005;SDS011;11167;46.988;15.470;2024-02-23T03:59:55;0.10;;;0.10;;
22005;SDS011;11167;46.988;15.470;2024-02-23T04:01:56;0.30;;;0.20;;
22005;SDS011;11167;46.988;15.470;2024-02-23T04:03:57;0.72;;;0.35;;
22005;SDS011;11167;46.988;15.470;2024-02-23T04:05:58;0.20;;;0.20;;
22005;SDS011;11167;46.988;15.470;2024-02-23T04:08:00;0.20;;;0.20;;
22005;SDS011;11167;46.988;15.470;2024-02-23T04:10:01;0.20;;;0.20;;
22005;SDS011;11167;46.988;15.470;2024-02-23T04:12:02;0.68;;;0.35;;
22005;SDS011;11167;46.988;15.470;2024-02-23T04:14:04;0.20;;;0.20;;
22005;SDS011;11167;46.988;15.470;2024-02-23T04:16:08;0.28;;;0.28;;
22005;SDS011;11167;46.988;15.470;2024-02-23T04:18:09;0.20;;;0.20;;
22005;SDS011;11167;46.988;15.470;2024-02-23T04:20:11;0.23;;;0.20;;
22005;SDS011;11167;46.988;15.470;2024-02-23T04:22:14;0.30;;;0.30;;
22005;SDS011;11167;46.988;15.470;2024-02-23T04:24:15;0.20;;;0.20;;
22005;SDS011;11167;46.988;15.470;2024-02-23T04:26:17;0.30;;;0.30;;
22005;SDS011;11167;46.988;15.470;2024-02-23T04:28:18;0.42;;;0.23;;
22005;SDS011;11167;46.988;15.470;2024-02-23T04:30:19;0.17;;;0.17;;
22005;SDS011;11167;46.988;15.470;2024-02-23T04:32:21;0.23;;;0.20;;
22005;SDS011;11167;46.988;15.470;2024-02-23T04:34:23;0.20;;;0.20;;
22005;SDS011;11167;46.988;15.470;2024-02-23T04:36:24;0.30;;;0.30;;
22005;SDS011;11167;46.988;15.470;2024-02-23T04:38:25;0.17;;;0.17;;
22005;SDS011;11167;46.988;15.470;2024-02-23T04:40:26;0.65;;;0.30;;
22005;SDS011;11167;46.988;15.470;2024-02-23T04:42:28;0.28;;;0.28;;
22005;SDS011;11167;46.988;15.470;2024-02-23T04:44:29;0.45;;;0.35;;
22005;SDS011;11167;46.988;15.470;2024-02-23T04:46:30;0.20;;;0.20;;
22005;SDS011;11167;46.988;15.470;2024-02-23T04:48:32;0.20;;;0.20;;
22005;SDS011;11167;46.988;15.470;2024-02-23T04:50:33;0.10;;;0.10;;
22005;SDS011;11167;46.988;15.470;2024-02-23T04:52:34;0.28;;;0.28;;
22005;SDS011;11167;46.988;15.470;2024-02-23T04:54:36;0.20;;;0.20;;
22005;SDS011;11167;46.988;15.470;2024-02-23T04:56:38;0.20;;;0.20;;
22005;SDS011;11167;46.988;15.470;2024-02-23T04:58:39;0.20;;;0.20;;
22005;SDS011;11167;46.988;15.470;2024-02-23T05:00:42;0.10;;;0.10;;
22005;SDS011;11167;46.988;15.470;2024-02-23T05:02:43;0.30;;;0.20;;
22005;SDS011;11167;46.988;15.470;2024-02-23T05:04:45;0.30;;;0.20;;
22005;SDS011;11167;46.988;15.470;2024-02-23T05:06:47;0.37;;;0.30;;
22005;SDS011;11167;46.988;15.470;2024-02-23T05:08:49;0.30;;;0.20;;
22005;SDS011;11167;46.988;15.470;2024-02-23T05:10:50;0.30;;;0.30;;
22005;SDS011;11167;46.988;15.470;2024-02-23T05:12:51;0.33;;;0.30;;
22005;SDS011;11167;46.988;15.470;2024-02-23T05:14:52;0.50;;;0.35;;
22005;SDS011;11167;46.988;15.470;2024-02-23T05:16:54;0.47;;;0.40;;
22005;SDS011;11167;46.988;15.470;2024-02-23T05:18:56;1.27;;;0.50;;
22005;SDS011;11167;46.988;15.470;2024-02-23T05:20:57;0.65;;;0.37;;
22005;SDS011;11167;46.988;15.470;2024-02-23T05:22:58;0.57;;;0.50;;
22005;SDS011;11167;46.988;15.470;2024-02-23T05:25:00;1.02;;;0.60;;
22005;SDS011;11167;46.988;15.470;2024-02-23T05:27:03;0.72;;;0.55;;
22005;SDS011;11167;46.988;15.470;2024-02-23T05:29:04;1.27;;;0.70;;
22005;SDS011;11167;46.988;15.470;2024-02-23T05:31:05;0.82;;;0.70;;
22005;SDS011;11167;46.988;15.470;2024-02-23T05:33:07;1.90;;;0.90;;
22005;SDS011;11167;46.988;15.470;2024-02-23T05:35:08;1.45;;;0.80;;
22005;SDS011;11167;46.988;15.470;2024-02-23T05:37:10;1.40;;;0.80;;
22005;SDS011;11167;46.988;15.470;2024-02-23T05:39:11;1.60;;;0.78;;
22005;SDS011;11167;46.988;15.470;2024-02-23T05:41:13;0.85;;;0.70;;
22005;SDS011;11167;46.988;15.470;2024-02-23T05:43:14;1.05;;;0.60;;
22005;SDS011;11167;46.988;15.470;2024-02-23T05:45:15;0.70;;;0.60;;
22005;SDS011;11167;46.988;15.470;2024-02-23T05:47:17;0.90;;;0.70;;
22005;SDS011;11167;46.988;15.470;2024-02-23T05:49:18;0.75;;;0.50;;
22005;SDS011;11167;46.988;15.470;2024-02-23T05:51:19;1.05;;;0.65;;
22005;SDS011;11167;46.988;15.470;2024-02-23T05:53:20;1.02;;;0.70;;
22005;SDS011;11167;46.988;15.470;2024-02-23T05:55:22;0.85;;;0.60;;
22005;SDS011;11167;46.988;15.470;2024-02-23T05:57:23;0.85;;;0.60;;
22005;SDS011;11167;46.988;15.470;2024-02-23T05:59:24;1.12;;;0.70;;
22005;SDS011;11167;46.988;15.470;2024-02-23T06:01:26;1.17;;;0.88;;
22005;SDS011;11167;46.988;15.470;2024-02-23T06:03:27;1.12;;;0.90;;
22005;SDS011;11167;46.988;15.470;2024-02-23T06:05:28;1.35;;;0.90;;
22005;SDS011;11167;46.988;15.470;2024-02-23T06:07:29;0.88;;;0.70;;
22005;SDS011;11167;46.988;15.470;2024-02-23T06:09:30;1.32;;;1.00;;
22005;SDS011;11167;46.988;15.470;2024-02-23T06:11:31;0.60;;;0.60;;
22005;SDS011;11167;46.988;15.470;2024-02-23T06:13:33;1.20;;;0.90;;
22005;SDS011;11167;46.988;15.470;2024-02-23T06:15:34;0.80;;;0.70;;
22005;SDS011;11167;46.988;15.470;2024-02-23T06:17:35;0.82;;;0.70;;
22005;SDS011;11167;46.988;15.470;2024-02-23T06:19:39;1.12;;;0.78;;
22005;SDS011;11167;46.988;15.470;2024-02-23T06:21:40;1.07;;;0.75;;
22005;SDS011;11167;46.988;15.470;2024-02-23T06:23:41;1.47;;;0.88;;
22005;SDS011;11167;46.988;15.470;2024-02-23T06:25:43;0.90;;;0.60;;
22005;SDS011;11167;46.988;15.470;2024-02-23T06:27:44;0.85;;;0.70;;
22005;SDS011;11167;46.988;15.470;2024-02-23T06:29:45;0.72;;;0.60;;
22005;SDS011;11167;46.988;15.470;2024-02-23T06:31:47;1.25;;;0.70;;
22005;SDS011;11167;46.988;15.470;2024-02-23T06:33:50;0.85;;;0.50;;
22005;SDS011;11167;46.988;15.470;2024-02-23T06:35:52;1.05;;;0.82;;
22005;SDS011;11167;46.988;15.470;2024-02-23T06:37:53;0.60;;;0.50;;
22005;SDS011;11167;46.988;15.470;2024-02-23T06:39:54;0.50;;;0.50;;
22005;SDS011;11167;46.988;15.470;2024-02-23T06:41:55;0.95;;;0.45;;
22005;SDS011;11167;46.988;15.470;2024-02-23T06:43:58;1.15;;;0.55;;
22005;SDS011;11167;46.988;15.470;2024-02-23T06:46:03;0.60;;;0.42;;
22005;SDS011;11167;46.988;15.470;2024-02-23T06:48:07;0.75;;;0.50;;
22005;SDS011;11167;46.988;15.470;2024-02-23T06:50:09;0.75;;;0.60;;
22005;SDS011;11167;46.988;15.470;2024-02-23T06:52:10;0.50;;;0.40;;
22005;SDS011;11167;46.988;15.470;2024-02-23T06:54:12;0.53;;;0.50;;
22005;SDS011;11167;46.988;15.470;2024-02-23T06:56:13;0.72;;;0.60;;
22005;SDS011;11167;46.988;15.470;2024-02-23T06:58:14;0.60;;;0.40;;
22005;SDS011;11167;46.988;15.470;2024-02-23T07:00:17;0.75;;;0.50;;
22005;SDS011;11167;46.988;15.470;2024-02-23T07:02:18;0.80;;;0.45;;
22005;SDS011;11167;46.988;15.470;2024-02-23T07:04:20;0.70;;;0.55;;
22005;SDS011;11167;46.988;15.470;2024-02-23T07:06:22;0.60;;;0.55;;
22005;SDS011;11167;46.988;15.470;2024-02-23T07:08:23;0.57;;;0.40;;
22005;SDS011;11167;46.988;15.470;2024-02-23T07:10:24;0.57;;;0.47;;
22005;SDS011;11167;46.988;15.470;2024-02-23T07:12:26;1.02;;;0.60;;
22005;SDS011;11167;46.988;15.470;2024-02-23T07:14:30;0.57;;;0.42;;
22005;SDS011;11167;46.988;15.470;2024-02-23T07:16:31;0.70;;;0.30;;
22005;SDS011;11167;46.988;15.470;2024-02-23T07:18:32;0.40;;;0.37;;
22005;SDS011;11167;46.988;15.470;2024-02-23T07:20:38;2.08;;;0.53;;
22005;SDS011;11167;46.988;15.470;2024-02-23T07:22:38;0.53;;;0.45;;
22005;SDS011;11167;46.988;15.470;2024-02-23T07:24:40;0.70;;;0.50;;
22005;SDS011;11167;46.988;15.470;2024-02-23T07:26:43;0.50;;;0.50;;
22005;SDS011;11167;46.988;15.470;2024-02-23T07:28:44;0.53;;;0.40;;
22005;SDS011;11167;46.988;15.470;2024-02-23T07:30:45;1.12;;;0.57;;
22005;SDS011;11167;46.988;15.470;2024-02-23T07:32:47;1.20;;;0.70;;
22005;SDS011;11167;46.988;15.470;2024-02-23T07:34:48;0.80;;;0.60;;
22005;SDS011;11167;46.988;15.470;2024-02-23T07:36:53;0.50;;;0.50;;
22005;SDS011;11167;46.988;15.470;2024-02-23T07:38:55;0.62;;;0.60;;
22005;SDS011;11167;46.988;15.470;2024-02-23T07:40:56;0.90;;;0.70;;
22005;SDS011;11167;46.988;15.470;2024-02-23T07:42:57;0.70;;;0.70;;
22005;SDS011;11167;46.988;15.470;2024-02-23T07:44:58;0.78;;;0.70;;
22005;SDS011;11167;46.988;15.470;2024-02-23T07:46:59;0.80;;;0.75;;
22005;SDS011;11167;46.988;15.470;2024-02-23T07:49:00;1.00;;;0.80;;
22005;SDS011;11167;46.988;15.470;2024-02-23T07:51:02;0.80;;;0.70;;
22005;SDS011;11167;46.988;15.470;2024-02-23T07:53:05;1.57;;;1.10;;
22005;SDS011;11167;46.988;15.470;2024-02-23T07:55:07;1.67;;;1.20;;
22005;SDS011;11167;46.988;15.470;2024-02-23T07:57:08;1.80;;;1.50;;
22005;SDS011;11167;46.988;15.470;2024-02-23T07:59:09;2.37;;;1.90;;
22005;SDS011;11167;46.988;15.470;2024-02-23T08:01:11;2.87;;;2.10;;
22005;SDS011;11167;46.988;15.470;2024-02-23T08:03:12;3.10;;;2.40;;
22005;SDS011;11167;46.988;15.470;2024-02-23T08:05:13;3.20;;;2.20;;
22005;SDS011;11167;46.988;15.470;2024-02-23T08:07:14;3.30;;;2.47;;
22005;SDS011;11167;46.988;15.470;2024-02-23T08:09:16;2.75;;;2.30;;
22005;SDS011;11167;46.988;15.470;2024-02-23T08:11:18;3.25;;;2.50;;
22005;SDS011;11167;46.988;15.470;2024-02-23T08:13:19;3.12;;;2.60;;
22005;SDS011;11167;46.988;15.470;2024-02-23T08:15:20;2.62;;;2.17;;
22005;SDS011;11167;46.988;15.470;2024-02-23T08:17:21;2.80;;;2.15;;
22005;SDS011;11167;46.988;15.470;2024-02-23T08:19:23;2.25;;;1.80;;
22005;SDS011;11167;46.988;15.470;2024-02-23T08:21:24;2.65;;;2.02;;
22005;SDS011;11167;46.988;15.470;2024-02-23T08:23:26;2.62;;;1.92;;
22005;SDS011;11167;46.988;15.470;2024-02-23T08:25:27;2.30;;;1.90;;
22005;SDS011;11167;46.988;15.470;2024-02-23T08:27:32;2.40;;;1.90;;
22005;SDS011;11167;46.988;15.470;2024-02-23T08:29:37;2.80;;;1.82;;
22005;SDS011;11167;46.988;15.470;2024-02-23T08:31:38;2.70;;;1.75;;
22005;SDS011;11167;46.988;15.470;2024-02-23T08:33:39;2.00;;;1.65;;
22005;SDS011;11167;46.988;15.470;2024-02-23T08:35:40;3.20;;;1.65;;
22005;SDS011;11167;46.988;15.470;2024-02-23T08:37:42;1.55;;;1.42;;
22005;SDS011;11167;46.988;15.470;2024-02-23T08:39:43;2.45;;;1.70;;
22005;SDS011;11167;46.988;15.470;2024-02-23T08:41:45;2.22;;;1.80;;
22005;SDS011;11167;46.988;15.470;2024-02-23T08:43:46;1.72;;;1.40;;
22005;SDS011;11167;46.988;15.470;2024-02-23T08:45:47;2.00;;;1.50;;
22005;SDS011;11167;46.988;15.470;2024-02-23T08:47:49;1.98;;;1.50;;
22005;SDS011;11167;46.988;15.470;2024-02-23T08:49:50;1.67;;;1.52;;
22005;SDS011;11167;46.988;15.470;2024-02-23T08:51:51;2.02;;;1.65;;
22005;SDS011;11167;46.988;15.470;2024-02-23T08:53:52;2.35;;;1.42;;
22005;SDS011;11167;46.988;15.470;2024-02-23T08:55:54;2.40;;;1.60;;
22005;SDS011;11167;46.988;15.470;2024-02-23T08:57:55;1.60;;;1.35;;
22005;SDS011;11167;46.988;15.470;2024-02-23T08:59:56;1.87;;;1.50;;
22005;SDS011;11167;46.988;15.470;2024-02-23T09:02:00;1.85;;;1.42;;
22005;SDS011;11167;46.988;15.470;2024-02-23T09:04:01;1.50;;;1.22;;
22005;SDS011;11167;46.988;15.470;2024-02-23T09:06:03;1.90;;;1.65;;
22005;SDS011;11167;46.988;15.470;2024-02-23T09:08:05;1.77;;;1.60;;
22005;SDS011;11167;46.988;15.470;2024-02-23T09:10:07;1.60;;;1.40;;
22005;SDS011;11167;46.988;15.470;2024-02-23T09:12:09;2.58;;;1.72;;
22005;SDS011;11167;46.988;15.470;2024-02-23T09:14:11;1.67;;;1.40;;
22005;SDS011;11167;46.988;15.470;2024-02-23T09:16:12;1.85;;;1.50;;
22005;SDS011;11167;46.988;15.470;2024-02-23T09:18:15;1.55;;;1.30;;
22005;SDS011;11167;46.988;15.470;2024-02-23T09:20:16;1.62;;;1.30;;
22005;SDS011;11167;46.988;15.470;2024-02-23T09:22:18;1.47;;;1.20;;
22005;SDS011;11167;46.988;15.470;2024-02-23T09:24:19;1.77;;;1.52;;
22005;SDS011;11167;46.988;15.470;2024-02-23T09:26:20;2.40;;;1.65;;
22005;SDS011;11167;46.988;15.470;2024-02-23T09:28:23;2.58;;;1.67;;
22005;SDS011;11167;46.988;15.470;2024-02-23T09:30:25;2.10;;;1.65;;
22005;SDS011;11167;46.988;15.470;2024-02-23T09:32:26;2.22;;;1.80;;
22005;SDS011;11167;46.988;15.470;2024-02-23T09:34:28;2.55;;;1.50;;
22005;SDS011;11167;46.988;15.470;2024-02-23T09:36:32;1.90;;;1.52;;
22005;SDS011;11167;46.988;15.470;2024-02-23T09:38:33;1.82;;;1.60;;
22005;SDS011;11167;46.988;15.470;2024-02-23T09:40:34;1.82;;;1.55;;
22005;SDS011;11167;46.988;15.470;2024-02-23T09:42:35;2.15;;;1.60;;
22005;SDS011;11167;46.988;15.470;2024-02-23T09:44:38;2.15;;;1.75;;
22005;SDS011;11167;46.988;15.470;2024-02-23T09:48:45;1.87;;;1.62;;
22005;SDS011;11167;46.988;15.470;2024-02-23T09:50:47;2.08;;;1.70;;
22005;SDS011;11167;46.988;15.470;2024-02-23T09:52:49;2.15;;;1.60;;
22005;SDS011;11167;46.988;15.470;2024-02-23T09:54:51;1.67;;;1.37;;
22005;SDS011;11167;46.988;15.470;2024-02-23T09:56:53;1.90;;;1.60;;
22005;SDS011;11167;46.988;15.470;2024-02-23T09:58:55;2.08;;;1.60;;
22005;SDS011;11167;46.988;15.470;2024-02-23T10:00:58;2.25;;;1.30;;
22005;SDS011;11167;46.988;15.470;2024-02-23T10:03:00;1.75;;;1.60;;
22005;SDS011;11167;46.988;15.470;2024-02-23T10:05:02;2.83;;;1.62;;
22005;SDS011;11167;46.988;15.470;2024-02-23T10:07:03;2.20;;;1.80;;
22005;SDS011;11167;46.988;15.470;2024-02-23T10:09:05;1.72;;;1.20;;
22005;SDS011;11167;46.988;15.470;2024-02-23T10:11:08;2.40;;;1.30;;
22005;SDS011;11167;46.988;15.470;2024-02-23T10:13:09;2.02;;;1.40;;
22005;SDS011;11167;46.988;15.470;2024-02-23T10:15:10;1.52;;;1.40;;
22005;SDS011;11167;46.988;15.470;2024-02-23T10:17:11;1.62;;;1.10;;
22005;SDS011;11167;46.988;15.470;2024-02-23T10:19:13;1.90;;;1.30;;
22005;SDS011;11167;46.988;15.470;2024-02-23T10:21:14;1.77;;;1.35;;
22005;SDS011;11167;46.988;15.470;2024-02-23T10:23:17;1.95;;;1.22;;
22005;SDS011;11167;46.988;15.470;2024-02-23T10:25:20;1.82;;;1.30;;
22005;SDS011;11167;46.988;15.470;2024-02-23T10:27:23;1.27;;;1.15;;
22005;SDS011;11167;46.988;15.470;2024-02-23T10:29:25;1.90;;;1.30;;
22005;SDS011;11167;46.988;15.470;2024-02-23T10:33:50;1.52;;;1.22;;
22005;SDS011;11167;46.988;15.470;2024-02-23T10:35:55;1.62;;;1.00;;
22005;SDS011;11167;46.988;15.470;2024-02-23T10:37:58;1.17;;;0.98;;
22005;SDS011;11167;46.988;15.470;2024-02-23T10:39:59;1.50;;;1.22;;
22005;SDS011;11167;46.988;15.470;2024-02-23T10:42:02;1.40;;;1.12;;
22005;SDS011;11167;46.988;15.470;2024-02-23T10:44:06;1.22;;;1.07;;
22005;SDS011;11167;46.988;15.470;2024-02-23T10:46:09;1.60;;;1.10;;
22005;SDS011;11167;46.988;15.470;2024-02-23T10:50:15;1.47;;;0.95;;
22005;SDS011;11167;46.988;15.470;2024-02-23T10:52:19;1.02;;;0.80;;
22005;SDS011;11167;46.988;15.470;2024-02-23T10:54:24;1.15;;;0.90;;
22005;SDS011;11167;46.988;15.470;2024-02-23T10:56:26;1.10;;;1.00;;
22005;SDS011;11167;46.988;15.470;2024-02-23T10:58:28;1.00;;;0.90;;
22005;SDS011;11167;46.988;15.470;2024-02-23T11:00:29;0.90;;;0.80;;
22005;SDS011;11167;46.988;15.470;2024-02-23T11:02:31;0.82;;;0.70;;
22005;SDS011;11167;46.988;15.470;2024-02-23T11:04:36;1.02;;;0.90;;
22005;SDS011;11167;46.988;15.470;2024-02-23T11:06:39;0.90;;;0.80;;
22005;SDS011;11167;46.988;15.470;2024-02-23T11:08:41;0.70;;;0.70;;
22005;SDS011;11167;46.988;15.470;2024-02-23T11:10:43;1.47;;;1.00;;
22005;SDS011;11167;46.988;15.470;2024-02-23T11:12:58;1.02;;;0.80;;
22005;SDS011;11167;46.988;15.470;2024-02-23T11:15:03;1.67;;;1.02;;
22005;SDS011;11167;46.988;15.470;2024-02-23T11:17:04;1.27;;;0.93;;
22005;SDS011;11167;46.988;15.470;2024-02-23T11:19:06;1.20;;;0.80;;
22005;SDS011;11167;46.988;15.470;2024-02-23T11:21:10;1.35;;;0.98;;
22005;SDS011;11167;46.988;15.470;2024-02-23T11:23:15;0.80;;;0.70;;
22005;SDS011;11167;46.988;15.470;2024-02-23T11:25:17;0.90;;;0.70;;
22005;SDS011;11167;46.988;15.470;2024-02-23T11:27:18;1.00;;;0.80;;
22005;SDS011;11167;46.988;15.470;2024-02-23T11:29:20;1.10;;;1.00;;
22005;SDS011;11167;46.988;15.470;2024-02-23T11:31:22;1.32;;;0.65;;
22005;SDS011;11167;46.988;15.470;2024-02-23T11:33:27;0.90;;;0.77;;
22005;SDS011;11167;46.988;15.470;2024-02-23T11:35:33;0.80;;;0.80;;
22005;SDS011;11167;46.988;15.470;2024-02-23T11:37:44;0.68;;;0.65;;
22005;SDS011;11167;46.988;15.470;2024-02-23T11:39:46;1.02;;;0.80;;
22005;SDS011;11167;46.988;15.470;2024-02-23T11:41:49;1.57;;;0.90;;
22005;SDS011;11167;46.988;15.470;2024-02-23T11:43:51;0.80;;;0.70;;
22005;SDS011;11167;46.988;15.470;2024-02-23T11:45:53;0.78;;;0.70;;
22005;SDS011;11167;46.988;15.470;2024-02-23T11:47:54;0.88;;;0.70;;
22005;SDS011;11167;46.988;15.470;2024-02-23T11:49:57;0.93;;;0.75;;
22005;SDS011;11167;46.988;15.470;2024-02-23T11:51:58;1.02;;;0.90;;
22005;SDS011;11167;46.988;15.470;2024-02-23T11:54:00;1.22;;;0.95;;
22005;SDS011;11167;46.988;15.470;2024-02-23T11:56:02;0.80;;;0.72;;
22005;SDS011;11167;46.988;15.470;2024-02-23T11:58:04;1.70;;;0.93;;
22005;SDS011;11167;46.988;15.470;2024-02-23T12:00:07;1.00;;;0.80;;
22005;SDS011;11167;46.988;15.470;2024-02-23T12:02:09;2.00;;;0.90;;
22005;SDS011;11167;46.988;15.470;2024-02-23T12:04:11;2.45;;;0.90;;
22005;SDS011;11167;46.988;15.470;2024-02-23T12:06:13;0.80;;;0.80;;
22005;SDS011;11167;46.988;15.470;2024-02-23T12:08:18;2.22;;;0.90;;
22005;SDS011;11167;46.988;15.470;2024-02-23T12:10:19;1.02;;;0.80;;
22005;SDS011;11167;46.988;15.470;2024-02-23T12:12:21;0.90;;;0.70;;